createdAt,value
2023-04-24T00:01:51.271Z,3.60
2023-04-24T00:04:21.141Z,3.70
2023-04-24T00:06:55.007Z,5.30
2023-04-24T00:09:25.233Z,3.77
2023-04-24T00:12:03.648Z,5.07
2023-04-24T00:14:36.203Z,4.43
2023-04-24T00:17:06.254Z,3.83
2023-04-24T00:19:35.649Z,4.23
2023-04-24T00:22:05.394Z,4.20
2023-04-24T00:24:34.865Z,5.73
2023-04-24T00:27:05.329Z,6.43
2023-04-24T00:29:36.308Z,7.30
2023-04-24T00:32:06.092Z,4.73
2023-04-24T00:34:36.040Z,6.50
2023-04-24T00:37:07.028Z,5.80
2023-04-24T00:39:36.428Z,8.23
2023-04-24T00:42:07.386Z,6.93
2023-04-24T00:44:38.785Z,4.63
2023-04-24T00:47:08.190Z,4.80
2023-04-24T00:49:38.777Z,5.47
2023-04-24T00:52:10.140Z,7.63
2023-04-24T00:54:39.696Z,6.07
2023-04-24T00:57:09.531Z,5.97
2023-04-24T00:59:42.186Z,6.10
2023-04-24T01:02:16.855Z,6.63
2023-04-24T01:04:48.555Z,8.40
2023-04-24T01:07:18.094Z,6.23
2023-04-24T01:09:52.440Z,6.63
2023-04-24T01:12:22.041Z,6.43
2023-04-24T01:14:55.655Z,9.17
2023-04-24T01:17:25.189Z,6.43
2023-04-24T01:20:07.885Z,8.40
2023-04-24T01:22:38.625Z,6.90
2023-04-24T01:25:09.277Z,5.90
2023-04-24T01:27:39.088Z,7.33
2023-04-24T01:30:11.487Z,5.87
2023-04-24T01:32:41.110Z,6.50
2023-04-24T01:35:13.701Z,5.77
2023-04-24T01:37:44.407Z,4.67
2023-04-24T01:40:14.170Z,4.97
2023-04-24T01:42:44.442Z,5.30
2023-04-24T01:45:14.944Z,5.43
2023-04-24T01:47:45.564Z,5.23
2023-04-24T01:50:15.368Z,7.50
2023-04-24T01:52:46.644Z,11.00
2023-04-24T01:55:16.206Z,5.53
2023-04-24T01:57:47.374Z,5.60
2023-04-24T02:00:18.221Z,7.03
2023-04-24T02:02:48.969Z,5.93
2023-04-24T02:05:20.810Z,5.47
2023-04-24T02:07:51.965Z,5.00
2023-04-24T02:10:21.861Z,6.70
2023-04-24T02:12:52.325Z,4.83
2023-04-24T02:15:23.123Z,3.93
2023-04-24T02:17:52.713Z,3.60
2023-04-24T02:20:22.146Z,6.67
2023-04-24T02:22:54.205Z,5.73
2023-04-24T02:25:24.306Z,3.87
2023-04-24T02:27:53.906Z,4.90
2023-04-24T02:30:25.655Z,5.53
2023-04-24T02:32:56.297Z,3.27
2023-04-24T02:35:29.509Z,2.47
2023-04-24T02:38:02.981Z,2.50
2023-04-24T02:40:32.445Z,2.70
2023-04-24T02:43:05.092Z,3.53
2023-04-24T02:45:35.770Z,2.80
2023-04-24T02:48:06.621Z,4.97
2023-04-24T02:50:36.275Z,3.80
2023-04-24T02:53:07.243Z,2.73
2023-04-24T02:55:36.668Z,5.10
2023-04-24T02:58:14.377Z,2.97
2023-04-24T03:00:45.603Z,5.37
2023-04-24T03:03:15.184Z,2.80
2023-04-24T03:05:45.695Z,3.03
2023-04-24T03:08:19.178Z,4.27
2023-04-24T03:10:49.106Z,8.77
2023-04-24T03:13:18.953Z,5.03
2023-04-24T03:15:48.342Z,2.93
2023-04-24T03:18:17.815Z,5.10
2023-04-24T03:20:48.690Z,3.13
2023-04-24T03:23:19.895Z,4.13
2023-04-24T03:25:49.781Z,2.67
2023-04-24T03:28:21.505Z,3.87
2023-04-24T03:30:57.009Z,2.43
2023-04-24T03:33:27.696Z,2.20
2023-04-24T03:36:07.947Z,1.90
2023-04-24T03:38:43.191Z,5.47
2023-04-24T03:41:25.025Z,2.17
2023-04-24T03:44:02.136Z,2.20
2023-04-24T03:46:37.465Z,3.03
2023-04-24T03:49:06.904Z,1.83
2023-04-24T03:51:40.353Z,2.63
2023-04-24T03:54:19.601Z,1.73
2023-04-24T03:56:49.619Z,2.60
2023-04-24T03:59:20.027Z,2.10
2023-04-24T04:01:56.685Z,9.00
2023-04-24T04:04:26.535Z,2.30
2023-04-24T04:06:56.725Z,4.93
2023-04-24T04:09:31.290Z,1.77
2023-04-24T04:12:01.567Z,1.77
2023-04-24T04:14:33.355Z,3.57
2023-04-24T04:17:05.356Z,1.30
2023-04-24T04:19:35.140Z,1.67
2023-04-24T04:22:06.060Z,1.33
2023-04-24T04:24:49.318Z,1.67
2023-04-24T04:27:19.590Z,5.40
2023-04-24T04:29:57.606Z,2.90
2023-04-24T04:32:27.287Z,1.50
2023-04-24T04:34:57.228Z,1.77
2023-04-24T04:37:29.727Z,2.17
2023-04-24T04:40:19.479Z,1.87
2023-04-24T04:42:55.052Z,1.23
2023-04-24T04:45:25.912Z,2.13
2023-04-24T04:48:18.608Z,2.30
2023-04-24T04:50:48.975Z,1.20
2023-04-24T04:53:19.105Z,1.97
2023-04-24T04:55:50.287Z,1.50
2023-04-24T04:58:21.611Z,1.50
2023-04-24T05:00:55.066Z,1.17
2023-04-24T05:03:32.269Z,1.63
2023-04-24T05:06:11.940Z,0.90
2023-04-24T05:08:42.611Z,2.00
2023-04-24T05:11:30.625Z,1.47
2023-04-24T05:14:02.388Z,1.17
2023-04-24T05:16:39.549Z,2.00
2023-04-24T05:19:12.161Z,1.97
2023-04-24T05:21:44.465Z,0.87
2023-04-24T05:24:18.871Z,0.60
2023-04-24T05:27:13.059Z,1.30
2023-04-24T05:29:51.807Z,0.97
2023-04-24T05:32:21.790Z,1.30
2023-04-24T05:34:51.262Z,1.53
2023-04-24T05:37:22.666Z,4.93
2023-04-24T05:39:52.714Z,0.70
2023-04-24T05:42:25.962Z,2.10
2023-04-24T05:45:00.214Z,0.60
2023-04-24T05:47:30.125Z,2.10
2023-04-24T05:50:01.483Z,0.53
2023-04-24T05:52:33.594Z,1.43
2023-04-24T05:55:08.584Z,1.40
2023-04-24T05:57:43.560Z,0.60
2023-04-24T06:00:14.696Z,0.50
2023-04-24T06:02:49.113Z,2.97
2023-04-24T06:05:20.366Z,1.10
2023-04-24T06:07:52.674Z,0.60
2023-04-24T06:10:25.052Z,2.50
2023-04-24T06:12:57.301Z,1.08
2023-04-24T06:15:27.323Z,0.90
2023-04-24T06:18:01.282Z,0.80
2023-04-24T06:20:30.571Z,1.55
2023-04-24T06:23:00.218Z,2.15
2023-04-24T06:25:30.110Z,1.25
2023-04-24T06:28:03.602Z,0.60
2023-04-24T06:30:34.741Z,1.65
2023-04-24T06:33:18.850Z,0.50
2023-04-24T06:35:50.339Z,0.98
2023-04-24T06:38:19.746Z,0.68
2023-04-24T06:40:49.161Z,0.50
2023-04-24T06:43:22.415Z,0.60
2023-04-24T06:45:51.994Z,0.88
2023-04-24T06:48:21.252Z,1.02
2023-04-24T06:50:50.546Z,1.92
2023-04-24T06:53:21.562Z,2.45
2023-04-24T06:55:51.091Z,0.93
2023-04-24T06:58:22.195Z,0.75
2023-04-24T07:00:52.018Z,0.60
2023-04-24T07:03:21.790Z,3.40
2023-04-24T07:05:52.558Z,2.75
2023-04-24T07:08:23.077Z,1.65
2023-04-24T07:10:52.991Z,0.60
2023-04-24T07:13:24.563Z,1.02
2023-04-24T07:15:55.161Z,0.70
2023-04-24T07:18:24.933Z,1.65
2023-04-24T07:20:54.735Z,2.88
2023-04-24T07:23:24.081Z,1.67
2023-04-24T07:25:53.735Z,1.48
2023-04-24T07:28:25.497Z,4.18
2023-04-24T07:30:55.931Z,2.55
2023-04-24T07:33:27.986Z,6.13
2023-04-24T07:35:57.688Z,1.40
2023-04-24T07:38:28.302Z,1.10
2023-04-24T07:41:00.162Z,2.47
2023-04-24T07:43:32.255Z,1.50
2023-04-24T07:46:02.098Z,0.90
2023-04-24T07:48:31.249Z,1.88
2023-04-24T07:51:00.381Z,1.70
2023-04-24T07:53:29.684Z,1.77
2023-04-24T07:55:59.101Z,1.50
2023-04-24T07:58:29.941Z,2.35
2023-04-24T08:00:59.207Z,1.60
2023-04-24T08:03:28.669Z,1.13
2023-04-24T08:05:59.598Z,1.52
2023-04-24T08:08:30.424Z,2.00
2023-04-24T08:10:59.812Z,3.92
2023-04-24T08:13:32.151Z,1.77
2023-04-24T08:16:01.636Z,1.83
2023-04-24T08:18:32.040Z,1.73
2023-04-24T08:21:02.495Z,1.40
2023-04-24T08:23:32.236Z,2.65
2023-04-24T08:26:02.871Z,2.20
2023-04-24T08:28:33.955Z,3.92
2023-04-24T08:31:03.578Z,3.97
2023-04-24T08:33:35.427Z,2.78
2023-04-24T08:36:06.541Z,2.58
2023-04-24T08:38:36.552Z,2.28
2023-04-24T08:41:07.208Z,3.30
2023-04-24T08:43:39.081Z,2.30
2023-04-24T08:46:12.187Z,3.53
2023-04-24T08:48:43.261Z,6.60
2023-04-24T08:51:14.376Z,4.17
2023-04-24T08:53:44.405Z,2.58
2023-04-24T08:56:15.973Z,5.88
2023-04-24T08:58:47.839Z,5.55
2023-04-24T09:01:18.976Z,2.90
2023-04-24T09:03:51.143Z,2.72
2023-04-24T09:06:23.830Z,3.78
2023-04-24T09:08:56.882Z,2.90
2023-04-24T09:11:28.481Z,4.03
2023-04-24T09:14:00.385Z,2.58
2023-04-24T09:16:30.922Z,3.17
2023-04-24T09:19:00.623Z,2.58
2023-04-24T09:21:35.079Z,2.70
2023-04-24T09:24:11.770Z,7.68
2023-04-24T09:26:41.274Z,3.42
2023-04-24T09:29:19.273Z,4.13
2023-04-24T09:31:49.209Z,4.00
2023-04-24T09:34:24.918Z,4.25
2023-04-24T09:36:54.784Z,5.35
2023-04-24T09:39:24.764Z,2.90
2023-04-24T09:41:57.005Z,2.25
2023-04-24T09:44:30.162Z,3.72
2023-04-24T09:47:01.647Z,3.03
2023-04-24T09:49:34.279Z,2.92
2023-04-24T09:52:07.925Z,2.78
2023-04-24T09:54:38.212Z,2.28
2023-04-24T09:57:10.901Z,3.17
2023-04-24T09:59:53.559Z,3.38
2023-04-24T10:02:24.715Z,3.42
2023-04-24T10:05:01.040Z,2.70
2023-04-24T10:07:30.841Z,2.87
2023-04-24T10:10:00.759Z,3.42
2023-04-24T10:12:33.088Z,2.55
2023-04-24T10:15:04.712Z,3.17
2023-04-24T10:17:36.686Z,3.33
2023-04-24T10:20:08.336Z,3.35
2023-04-24T10:22:39.136Z,5.90
2023-04-24T10:25:11.295Z,4.63
2023-04-24T10:27:41.731Z,3.97
2023-04-24T10:30:15.477Z,4.90
2023-04-24T10:32:44.981Z,6.77
2023-04-24T10:35:16.987Z,4.70
2023-04-24T10:37:50.965Z,8.38
2023-04-24T10:40:21.562Z,5.57
2023-04-24T10:42:54.900Z,5.23
2023-04-24T10:45:29.248Z,5.97
2023-04-24T10:48:06.231Z,6.53
2023-04-24T10:50:46.574Z,6.85
2023-04-24T10:53:18.019Z,7.63
2023-04-24T10:55:49.310Z,5.43
2023-04-24T10:58:19.559Z,6.07
2023-04-24T11:01:00.578Z,6.53
2023-04-24T11:03:31.796Z,6.00
2023-04-24T11:06:03.850Z,7.25
2023-04-24T11:08:38.498Z,6.95
2023-04-24T11:11:16.199Z,8.48
2023-04-24T11:14:07.370Z,9.90
2023-04-24T11:16:45.532Z,5.07
2023-04-24T11:19:26.193Z,6.40
2023-04-24T11:22:02.726Z,8.50
2023-04-24T11:24:35.052Z,9.30
2023-04-24T11:27:20.685Z,9.60
2023-04-24T11:29:52.521Z,9.07
2023-04-24T11:32:28.485Z,9.80
2023-04-24T11:35:00.633Z,8.07
2023-04-24T11:37:38.413Z,6.38
2023-04-24T11:40:10.183Z,4.72
2023-04-24T11:42:40.672Z,5.45
2023-04-24T11:45:11.774Z,8.57
2023-04-24T11:47:43.903Z,5.53
2023-04-24T11:50:16.055Z,7.25
2023-04-24T11:52:47.474Z,5.32
2023-04-24T11:55:28.377Z,6.85
2023-04-24T11:58:00.217Z,6.07
2023-04-24T12:00:34.828Z,5.80
2023-04-24T12:03:11.244Z,8.70
2023-04-24T12:05:42.572Z,4.68
2023-04-24T12:08:12.220Z,8.13
2023-04-24T12:10:46.025Z,6.75
2023-04-24T12:13:19.305Z,6.43
2023-04-24T12:15:49.071Z,6.13
2023-04-24T12:18:24.833Z,5.95
2023-04-24T12:20:54.166Z,5.63
2023-04-24T12:23:37.132Z,6.15
2023-04-24T12:26:07.169Z,5.57
2023-04-24T12:28:40.920Z,6.95
2023-04-24T12:31:10.342Z,3.33
2023-04-24T12:33:41.624Z,4.28
2023-04-24T12:36:15.037Z,4.68
2023-04-24T12:38:47.950Z,3.42
2023-04-24T12:41:20.748Z,5.35
2023-04-24T12:44:01.411Z,4.00
2023-04-24T12:46:32.013Z,4.80
2023-04-24T12:49:03.334Z,4.38
2023-04-24T12:51:32.586Z,4.13
2023-04-24T12:54:01.819Z,5.20
2023-04-24T12:56:31.859Z,6.15
2023-04-24T12:59:01.424Z,10.43
2023-04-24T13:01:30.797Z,7.00
2023-04-24T13:04:02.138Z,4.88
2023-04-24T13:06:35.173Z,3.42
2023-04-24T13:09:04.524Z,3.97
2023-04-24T13:11:34.030Z,3.78
2023-04-24T13:14:03.620Z,4.15
2023-04-24T13:16:33.673Z,4.20
2023-04-24T13:19:06.255Z,4.63
2023-04-24T13:21:35.894Z,6.10
2023-04-24T13:24:05.962Z,4.77
2023-04-24T13:26:35.782Z,4.50
2023-04-24T13:29:05.697Z,3.87
2023-04-24T13:31:38.550Z,5.00
2023-04-24T13:34:12.940Z,4.57
2023-04-24T13:36:42.187Z,4.87
2023-04-24T13:39:13.054Z,5.40
2023-04-24T13:41:43.004Z,3.80
2023-04-24T13:44:12.241Z,7.45
2023-04-24T13:46:41.758Z,4.75
2023-04-24T13:49:12.950Z,3.97
2023-04-24T13:51:48.535Z,4.20
2023-04-24T13:54:20.026Z,3.63
2023-04-24T13:56:49.950Z,3.23
2023-04-24T13:59:20.078Z,3.50
2023-04-24T14:01:50.164Z,4.53
2023-04-24T14:04:21.252Z,2.90
2023-04-24T14:06:51.869Z,2.70
2023-04-24T14:09:21.653Z,2.70
2023-04-24T14:11:51.112Z,2.60
2023-04-24T14:14:20.292Z,3.17
2023-04-24T14:16:50.096Z,3.43
2023-04-24T14:19:21.009Z,4.00
2023-04-24T14:21:50.729Z,2.73
2023-04-24T14:24:22.173Z,3.05
2023-04-24T14:26:52.208Z,4.87
2023-04-24T14:29:21.952Z,3.30
2023-04-24T14:31:51.718Z,3.33
2023-04-24T14:34:24.697Z,4.23
2023-04-24T14:36:55.983Z,4.37
2023-04-24T14:39:25.469Z,3.73
2023-04-24T14:41:55.072Z,3.87
2023-04-24T14:44:24.378Z,3.33
2023-04-24T14:46:54.317Z,4.83
2023-04-24T14:49:28.351Z,4.00
2023-04-24T14:51:58.459Z,4.53
2023-04-24T14:54:28.141Z,5.53
2023-04-24T14:56:58.881Z,6.37
2023-04-24T14:59:28.463Z,5.30
2023-04-24T15:02:14.966Z,5.83
2023-04-24T15:04:47.561Z,5.90
2023-04-24T15:07:19.391Z,6.77
2023-04-24T15:09:50.121Z,5.83
2023-04-24T15:12:19.905Z,8.30
2023-04-24T15:14:53.216Z,6.73
2023-04-24T15:17:23.805Z,6.20
2023-04-24T15:22:49.489Z,5.27
2023-04-24T15:25:20.652Z,9.70
2023-04-24T15:27:51.219Z,7.60
2023-04-24T15:30:24.699Z,7.53
2023-04-24T15:32:55.100Z,5.07
2023-04-24T15:35:27.048Z,6.07
2023-04-24T15:37:57.705Z,9.30
2023-04-24T15:40:28.875Z,4.90
2023-04-24T15:42:58.144Z,7.93
2023-04-24T15:45:29.893Z,4.57
2023-04-24T15:47:59.765Z,4.40
2023-04-24T15:50:35.400Z,2.10
2023-04-24T15:53:07.361Z,1.63
2023-04-24T15:55:37.380Z,2.33
2023-04-24T15:58:11.755Z,1.80
2023-04-24T16:00:41.933Z,1.67
2023-04-24T16:03:23.226Z,3.17
2023-04-24T16:05:55.561Z,2.00
2023-04-24T16:08:24.809Z,2.17
2023-04-24T16:10:54.277Z,4.67
2023-04-24T16:13:24.238Z,3.83
2023-04-24T16:15:54.235Z,3.13
2023-04-24T16:18:24.025Z,4.33
2023-04-24T16:20:55.388Z,4.47
2023-04-24T16:23:25.622Z,8.83
2023-04-24T16:25:55.553Z,4.53
2023-04-24T16:28:29.546Z,4.80
2023-04-24T16:31:00.525Z,5.30
2023-04-24T16:33:31.667Z,6.17
2023-04-24T16:36:03.779Z,7.57
2023-04-24T16:38:38.870Z,9.30
2023-04-24T16:41:09.433Z,8.63
2023-04-24T16:43:38.804Z,6.23
2023-04-24T16:46:08.318Z,7.27
2023-04-24T16:48:37.952Z,5.43
2023-04-24T16:51:10.589Z,7.90
2023-04-24T16:53:41.851Z,7.27
2023-04-24T16:56:12.385Z,9.37
2023-04-24T16:58:42.092Z,5.93
2023-04-24T17:01:11.513Z,5.10
2023-04-24T17:03:43.641Z,5.47
2023-04-24T17:06:16.221Z,6.90
2023-04-24T17:08:46.979Z,4.03
2023-04-24T17:11:17.040Z,8.93
2023-04-24T17:13:46.586Z,9.00
2023-04-24T17:16:25.113Z,3.93
2023-04-24T17:18:58.331Z,3.57
2023-04-24T17:21:30.169Z,4.27
2023-04-24T17:23:59.850Z,6.00
2023-04-24T17:26:32.308Z,4.17
2023-04-24T17:29:02.721Z,4.10
2023-04-24T17:31:43.984Z,4.13
2023-04-24T17:34:13.909Z,5.60
2023-04-24T17:36:46.049Z,8.73
2023-04-24T17:39:16.955Z,4.30
2023-04-24T17:41:48.922Z,4.17
2023-04-24T17:44:18.459Z,5.07
2023-04-24T17:46:48.586Z,4.47
2023-04-24T17:49:19.082Z,6.50
2023-04-24T17:51:54.458Z,4.07
2023-04-24T17:54:23.827Z,8.17
2023-04-24T17:56:56.615Z,6.70
2023-04-24T17:59:26.668Z,5.13
2023-04-24T18:01:58.786Z,6.47
2023-04-24T18:04:28.960Z,9.57
2023-04-24T18:07:05.002Z,8.80
2023-04-24T18:09:34.266Z,6.73
2023-04-24T18:12:03.767Z,8.00
2023-04-24T18:14:35.598Z,5.23
2023-04-24T18:17:06.842Z,7.77
2023-04-24T18:20:03.942Z,9.27
2023-04-24T18:22:38.752Z,5.80
2023-04-24T18:25:16.008Z,5.17
2023-04-24T18:27:47.226Z,5.90
2023-04-24T18:30:16.684Z,8.13
2023-04-24T18:32:47.314Z,9.57
2023-04-24T18:35:19.238Z,6.20
2023-04-24T18:37:51.796Z,8.33
2023-04-24T18:40:21.441Z,8.83
2023-04-24T18:42:52.243Z,7.23
2023-04-24T18:45:21.512Z,5.90
2023-04-24T18:47:53.818Z,8.47
2023-04-24T18:50:23.366Z,7.83
2023-04-24T18:52:54.471Z,3.87
2023-04-24T18:55:24.574Z,3.97
2023-04-24T18:57:54.873Z,4.67
2023-04-24T19:00:24.362Z,3.60
2023-04-24T19:02:54.453Z,5.13
2023-04-24T19:05:29.951Z,2.90
2023-04-24T19:08:06.323Z,6.47
2023-04-24T19:10:39.124Z,6.30
2023-04-24T19:13:08.893Z,3.47
2023-04-24T19:15:38.303Z,4.93
2023-04-24T19:18:08.627Z,1.97
2023-04-24T19:20:38.274Z,3.70
2023-04-24T19:23:09.498Z,2.80
2023-04-24T19:25:47.575Z,6.23
2023-04-24T19:28:17.808Z,2.20
2023-04-24T19:30:47.237Z,7.17
2023-04-24T19:33:19.908Z,3.77
2023-04-24T19:35:51.294Z,5.53
2023-04-24T19:38:25.981Z,1.57
2023-04-24T19:40:56.691Z,2.70
2023-04-24T19:43:27.735Z,2.67
2023-04-24T19:46:02.986Z,7.23
2023-04-24T19:48:34.799Z,4.03
2023-04-24T19:51:05.697Z,5.77
2023-04-24T19:53:36.835Z,2.20
2023-04-24T19:56:06.722Z,2.40
2023-04-24T19:58:36.744Z,5.57
2023-04-24T20:01:06.427Z,5.27
2023-04-24T20:03:38.507Z,4.63
2023-04-24T20:06:09.316Z,4.13
2023-04-24T20:08:40.190Z,1.47
2023-04-24T20:11:10.977Z,2.60
2023-04-24T20:13:40.750Z,2.10
2023-04-24T20:16:11.549Z,2.97
2023-04-24T20:18:41.737Z,7.63
2023-04-24T20:21:18.131Z,3.13
2023-04-24T20:23:49.030Z,3.80
2023-04-24T20:26:20.222Z,4.63
2023-04-24T20:28:51.137Z,4.77
2023-04-24T20:31:20.802Z,2.20
2023-04-24T20:33:50.362Z,2.60
2023-04-24T20:36:19.894Z,4.57
2023-04-24T20:38:51.915Z,5.57
2023-04-24T20:41:22.809Z,2.03
2023-04-24T20:43:53.054Z,7.27
2023-04-24T20:46:23.132Z,5.33
2023-04-24T20:48:55.376Z,4.73
2023-04-24T20:51:24.588Z,6.23
2023-04-24T20:53:55.587Z,3.60
2023-04-24T20:56:25.788Z,4.00
2023-04-24T20:58:57.152Z,6.03
2023-04-24T21:01:26.773Z,3.90
2023-04-24T21:03:58.927Z,3.83
2023-04-24T21:06:28.779Z,3.20
2023-04-24T21:08:59.655Z,4.53
2023-04-24T21:11:28.929Z,4.53
2023-04-24T21:13:58.432Z,4.13
2023-04-24T21:16:27.718Z,6.43
2023-04-24T21:18:57.409Z,4.93
2023-04-24T21:21:36.786Z,4.37
2023-04-24T21:24:08.233Z,5.17
2023-04-24T21:26:40.186Z,4.00
2023-04-24T21:29:09.791Z,6.83
2023-04-24T21:31:42.165Z,6.47
2023-04-24T21:34:11.979Z,4.73
2023-04-24T21:36:42.764Z,2.03
2023-04-24T21:39:13.892Z,5.00
2023-04-24T21:41:45.512Z,2.40
2023-04-24T21:44:16.654Z,5.07
2023-04-24T21:46:46.389Z,5.97
2023-04-24T21:49:15.965Z,4.90
2023-04-24T21:51:45.499Z,8.67
2023-04-24T21:54:16.522Z,6.10
2023-04-24T21:56:48.025Z,2.57
2023-04-24T21:59:17.321Z,5.03
2023-04-24T22:01:47.980Z,6.93
2023-04-24T22:04:17.842Z,4.30
2023-04-24T22:06:48.147Z,6.40
2023-04-24T22:09:19.529Z,3.53
2023-04-24T22:11:48.956Z,4.70
2023-04-24T22:14:18.157Z,4.07
2023-04-24T22:16:47.741Z,4.50
2023-04-24T22:19:18.372Z,6.90
2023-04-24T22:21:47.570Z,4.10
2023-04-24T22:24:20.058Z,5.30
2023-04-24T22:26:49.681Z,5.07
2023-04-24T22:29:20.370Z,5.13
2023-04-24T22:34:42.804Z,5.30
2023-04-24T22:37:14.986Z,9.93
2023-04-24T22:39:46.335Z,9.53
2023-04-24T22:42:16.863Z,6.17
2023-04-24T22:44:46.442Z,4.67
2023-04-24T22:47:19.704Z,3.60
2023-04-24T22:49:50.035Z,4.77
2023-04-24T22:52:19.184Z,3.53
2023-04-24T22:54:50.213Z,7.47
2023-04-24T22:57:19.968Z,4.27
2023-04-24T22:59:51.121Z,7.93
2023-04-24T23:02:23.272Z,9.63
2023-04-24T23:04:54.317Z,7.53
2023-04-24T23:07:24.016Z,9.63
2023-04-24T23:09:54.748Z,7.90
2023-04-24T23:12:31.453Z,5.53
2023-04-24T23:15:01.679Z,4.43
2023-04-24T23:17:38.275Z,2.47
2023-04-24T23:20:10.205Z,4.20
2023-04-24T23:22:41.652Z,3.27
2023-04-24T23:25:16.974Z,4.57
2023-04-24T23:27:46.450Z,5.07
2023-04-24T23:30:21.020Z,4.30
2023-04-24T23:32:50.486Z,4.97
2023-04-24T23:35:20.022Z,9.10
2023-04-24T23:37:54.860Z,8.70
2023-04-24T23:40:28.167Z,5.20
2023-04-24T23:43:06.764Z,3.63
2023-04-24T23:45:38.501Z,5.77
2023-04-24T23:48:08.304Z,7.70
2023-04-24T23:50:37.677Z,4.87
2023-04-24T23:53:09.301Z,6.07
2023-04-24T23:55:41.371Z,6.80
2023-04-24T23:58:12.429Z,7.63
